Meteo Giornale » Osservazioni meteo Stati Uniti (USA) » Avon Park Gunnery Range
ore: 22:55 - Osservazioni Meteo Avon Park Gunnery Range
Lat. 27° 39' N Lon. 81° 20' W Alt. 20 metri s.l.m.
25 °C
Nuvoloso
Temp. 24 Ore
25 °C
33 °C
Nord
0 Km/h
Dew point 25 °C
Umidità 100 %
Visibilità 11 Km
Il sole sorge alle ore 07:04
Il sole tramonta alle ore 19:45
| Data e Ora | Cielo e Fenomeni | T °C | DP °C | Um. % | Pres. hPa | Vis. km | Vento km/h | |
|---|---|---|---|---|---|---|---|---|
| Ieri h: 22:55 | Nuvoloso | 25 | 25 | 100 | 1016 | 11 | N 0 | |
| Ieri h: 21:55 | Sereno | 25 | 25 | 100 | 1016 | 11 | N 0 | |
| Ieri h: 20:57 | Foschia | 26 | 25 | 94 | 1015 | 10 | N 0 | |
| Ieri h: 20:55 | Pioggia Foschia | 26 | 25 | 94 | 1015 | 10 | N 0 | |
| Ieri h: 20:53 | Pioggia Foschia | 26 | 25 | 94 | 1015 | 10 | N 0 | |
| Ieri h: 20:50 | Sereno | 26 | 25 | 94 | 1015 | 11 | N 0 | |
| Ieri h: 20:37 | Pioggia Foschia | 25 | 25 | 100 | 1015 | 10 | N 0 | |
| Ieri h: 20:36 | Sereno | 25 | 25 | 100 | 1015 | 11 | N 0 | |
| Ieri h: 20:28 | Pioggia Foschia | 26 | 25 | 94 | 1015 | 10 | N 0 | |
| Ieri h: 20:16 | Sereno | 25 | 25 | 100 | 1015 | 11 | N 0 | |
| Ieri h: 20:13 | Pioggia Foschia | 25 | 25 | 100 | 1015 | 10 | N 0 | |
| Ieri h: 20:11 | Sereno | 25 | 25 | 100 | 1015 | 11 | N 0 | |
| Ieri h: 20:09 | Pioggia Foschia | 25 | 25 | 100 | 1015 | 10 | N 0 | |
| Ieri h: 20:06 | Sereno | 25 | 24 | 94 | 1015 | 11 | N 0 | |
| Ieri h: 20:04 | Temporale nelle vicinanze Pioggia | 25 | 25 | 100 | 1015 | 11 | N 0 | |
| Ieri h: 19:55 | Temporale nelle vicinanze | 25 | 24 | 94 | 1015 | 11 | N 0 | |
| Ieri h: 19:48 | Poco Nuvoloso | 25 | 25 | 100 | 1015 | 11 | N 0 | |
| Ieri h: 19:42 | Pioggia Foschia | 25 | 25 | 100 | 1015 | 8 | N 0 | |
| Ieri h: 19:26 | Foschia | 25 | 25 | 100 | 1015 | 8 | N 0 | |
| Ieri h: 19:14 | Pioggia Foschia | 25 | 25 | 100 | 1015 | 10 | N 0 | |
| Ieri h: 19:13 | Temporale Foschia | 25 | 24 | 94 | 1015 | 10 | N 0 | |
| Ieri h: 19:09 | Temporale Foschia | 25 | 25 | 100 | 1015 | 10 | N 0 | |
| Ieri h: 18:59 | Temporale Foschia | 25 | 25 | 100 | 1015 | 8 | N 0 | |
| Ieri h: 18:56 | Pioggia Foschia | 25 | 24 | 94 | 1015 | 8 | N 0 | |
| Ieri h: 18:55 | Foschia | 25 | 24 | 94 | 1015 | 8 | N 0 | |
| Ieri h: 18:53 | Foschia | 25 | 24 | 94 | 1015 | 8 | N 5.5 | |
| Ieri h: 18:34 | Temporale nelle vicinanze Pioggia | 25 | 25 | 100 | 1015 | 6 | N 0 | |
| Ieri h: 18:33 | Foschia | 25 | 25 | 100 | 1015 | 6 | N 0 | |
| Ieri h: 18:20 | Temporale nelle vicinanze Pioggia | 25 | 25 | 100 | 1015 | 8 | S 7.4 | |
| Ieri h: 18:19 | Sereno | 25 | 25 | 100 | 1015 | 8 | S 7.4 | |
| Ieri h: 18:17 | Temporale nelle vicinanze Pioggia | 25 | 25 | 100 | 1015 | 8 | S 7.4 | |
| Ieri h: 17:55 | Temporale Pioggia | 26 | 25 | 94 | 1015 | 8 | N 0 | |
| Ieri h: 17:54 | Temporale Pioggia | 26 | 25 | 94 | 1015 | 8 | N 0 | |
| Ieri h: 17:44 | Temporale nelle vicinanze Pioggia | 25 | 24 | 94 | 1015 | 13 | N 5.5 | |
| Ieri h: 17:42 | Temporale nelle vicinanze | 25 | 24 | 94 | 1015 | 13 | N 5.5 | |
| Ieri h: 17:40 | Temporale nelle vicinanze Pioggia | 25 | 24 | 94 | 1015 | 13 | N 0 | |
| Ieri h: 16:56 | Temporale Foschia | 26 | 25 | 94 | 1015 | 10 | N 5.5 | |
| Ieri h: 16:55 | Temporale Foschia | 26 | 25 | 94 | 1015 | 10 | N 5.5 | |
| Ieri h: 16:46 | Temporale Pioggia | 26 | 25 | 94 | 1015 | 10 | E 9.3 | |
| Ieri h: 16:43 | Temporale Foschia | 26 | 25 | 94 | 1015 | 10 | SE 13 | |
| Ieri h: 16:15 | Temporale | 28 | 25 | 83 | 1015 | 13 | NE 7.4 | |
| Ieri h: 15:55 | Temporale | 28 | 26 | 88 | 1015 | 14 | E 14.8 | |
| Ieri h: 15:35 | Temporale | 30 | 26 | 79 | 1014 | 14 | N/NE 29.6 | |
| Ieri h: 15:28 | Temporale nelle vicinanze | 31 | 25 | 70 | 1014 | 10 | N/NE 25.9 | |
| Ieri h: 15:27 | Temporale | 31 | 25 | 70 | 1014 | 10 | N/NE 24 | |
| Ieri h: 15:08 | Temporale | 32 | 25 | 66 | 1014 | 10 | N/NE 11.1 | |
| Ieri h: 14:55 | Temporale nelle vicinanze | 31 | 25 | 70 | 1014 | 14 | N 9.3 | |
| Ieri h: 13:55 | Temporale nelle vicinanze | 33 | 24 | 59 | 1015 | 10 | N 11.1 | |
| Ieri h: 12:55 | Nuvoloso | 33 | 24 | 59 | 1016 | 10 | NE 9.3 | |
| Ieri h: 11:55 | Nuvoloso | 31 | 24 | 66 | 1016 | 10 | N 9.3 | |
| Ieri h: 10:55 | Temporale nelle vicinanze | 30 | 26 | 79 | 1017 | 10 | N/NO 9.3 | |
| Ieri h: 10:48 | Coperto | 29 | 26 | 83 | 1017 | 10 | O/NO 7.4 | |
| Ieri h: 10:43 | Coperto | 29 | 26 | 83 | 1016 | 10 | N 5.5 | |
| Ieri h: 10:38 | Coperto | 29 | 26 | 83 | 1016 | 10 | N 5.5 | |
| Ieri h: 10:13 | Molto Nuvoloso | 29 | 26 | 83 | 1016 | 10 | NO 9.3 | |
| Ieri h: 10:03 | Molto Nuvoloso | 30 | 26 | 79 | 1016 | 10 | N 9.3 | |
| Ieri h: 09:58 | Nuvoloso | 30 | 26 | 79 | 1016 | 10 | N/NE 9.3 | |
| Ieri h: 09:55 | Temporale | 30 | 26 | 79 | 1016 | 10 | N 5.5 | |
| Ieri h: 09:43 | Temporale | 29 | 26 | 83 | 1016 | 10 | N 7.4 | |
| Ieri h: 08:55 | Sereno | 28 | 26 | 88 | 1016 | 10 | N 0 | |
| Ieri h: 07:55 | Coperto | 26 | 26 | 100 | 1016 | 10 | N/NO 7.4 | |
| Ieri h: 06:55 | Coperto | 25 | 24 | 94 | 1015 | 14 | N 0 | |
| Ieri h: 05:55 | Molto Nuvoloso | 25 | 25 | 100 | 1015 | 10 | N 0 | |
| Ieri h: 05:41 | Molto Nuvoloso | 25 | 25 | 100 | 1015 | 10 | N 0 | |
| Ieri h: 04:55 | Sereno | 25 | 25 | 100 | 1015 | 10 | N 0 | |
| Ieri h: 03:55 | Sereno | 25 | 25 | 100 | 1015 | 10 | N 5.5 | |
| Ieri h: 02:55 | Sereno | 25 | 24 | 94 | 1015 | 10 | N 7.4 | |
| Ieri h: 01:55 | Sereno | 25 | 25 | 100 | 1016 | 10 | N/NO 9.3 | |
| Ieri h: 00:55 | Sereno | 25 | 24 | 94 | 1017 | 10 | N 0 | |



